sensor_id;sensor_type;location;lat;lon;timestamp;P1;durP1;ratioP1;P2;durP2;ratioP2
52798;SDS011;38667;42.872;74.622;2023-05-16T00:01:47;28.63;;;7.75;;
52798;SDS011;38667;42.872;74.622;2023-05-16T00:04:13;17.15;;;5.85;;
52798;SDS011;38667;42.872;74.622;2023-05-16T00:06:39;13.85;;;5.38;;
52798;SDS011;38667;42.872;74.622;2023-05-16T00:09:06;10.02;;;5.00;;
52798;SDS011;38667;42.872;74.622;2023-05-16T00:11:34;20.13;;;5.03;;
52798;SDS011;38667;42.872;74.622;2023-05-16T00:14:00;11.68;;;5.05;;
52798;SDS011;38667;42.872;74.622;2023-05-16T00:16:26;14.35;;;5.00;;
52798;SDS011;38667;42.872;74.622;2023-05-16T00:18:52;22.92;;;5.65;;
52798;SDS011;38667;42.872;74.622;2023-05-16T00:21:19;11.98;;;5.10;;
52798;SDS011;38667;42.872;74.622;2023-05-16T00:23:45;11.35;;;4.95;;
52798;SDS011;38667;42.872;74.622;2023-05-16T00:26:11;13.98;;;5.85;;
52798;SDS011;38667;42.872;74.622;2023-05-16T00:28:39;17.80;;;5.78;;
52798;SDS011;38667;42.872;74.622;2023-05-16T00:31:05;18.90;;;5.68;;
52798;SDS011;38667;42.872;74.622;2023-05-16T00:33:32;14.23;;;5.53;;
52798;SDS011;38667;42.872;74.622;2023-05-16T00:35:58;18.38;;;5.28;;
52798;SDS011;38667;42.872;74.622;2023-05-16T00:38:25;12.07;;;5.25;;
52798;SDS011;38667;42.872;74.622;2023-05-16T00:40:51;14.25;;;5.43;;
52798;SDS011;38667;42.872;74.622;2023-05-16T00:43:17;16.67;;;5.80;;
52798;SDS011;38667;42.872;74.622;2023-05-16T00:45:45;18.48;;;5.60;;
52798;SDS011;38667;42.872;74.622;2023-05-16T00:48:11;18.48;;;5.30;;
52798;SDS011;38667;42.872;74.622;2023-05-16T00:50:39;14.52;;;4.80;;
52798;SDS011;38667;42.872;74.622;2023-05-16T00:53:06;10.68;;;4.35;;
52798;SDS011;38667;42.872;74.622;2023-05-16T00:55:32;14.35;;;4.90;;
52798;SDS011;38667;42.872;74.622;2023-05-16T00:57:59;12.00;;;4.70;;
52798;SDS011;38667;42.872;74.622;2023-05-16T01:00:25;15.52;;;4.80;;
52798;SDS011;38667;42.872;74.622;2023-05-16T01:02:53;11.27;;;5.30;;
52798;SDS011;38667;42.872;74.622;2023-05-16T01:05:20;17.20;;;4.90;;
52798;SDS011;38667;42.872;74.622;2023-05-16T01:07:46;17.70;;;5.22;;
52798;SDS011;38667;42.872;74.622;2023-05-16T01:10:13;14.68;;;4.88;;
52798;SDS011;38667;42.872;74.622;2023-05-16T01:12:41;15.52;;;5.22;;
52798;SDS011;38667;42.872;74.622;2023-05-16T01:15:31;17.77;;;4.82;;
52798;SDS011;38667;42.872;74.622;2023-05-16T01:18:07;14.60;;;4.80;;
52798;SDS011;38667;42.872;74.622;2023-05-16T01:20:44;21.13;;;6.97;;
52798;SDS011;38667;42.872;74.622;2023-05-16T01:23:19;25.25;;;9.65;;
52798;SDS011;38667;42.872;74.622;2023-05-16T01:26:09;25.52;;;10.30;;
52798;SDS011;38667;42.872;74.622;2023-05-16T01:28:43;26.02;;;11.93;;
52798;SDS011;38667;42.872;74.622;2023-05-16T01:31:10;26.63;;;12.02;;
52798;SDS011;38667;42.872;74.622;2023-05-16T01:33:37;29.08;;;12.60;;
52798;SDS011;38667;42.872;74.622;2023-05-16T01:36:05;27.67;;;12.68;;
52798;SDS011;38667;42.872;74.622;2023-05-16T01:38:41;32.45;;;12.52;;
52798;SDS011;38667;42.872;74.622;2023-05-16T01:41:17;34.95;;;13.73;;
52798;SDS011;38667;42.872;74.622;2023-05-16T01:43:50;34.88;;;15.70;;
52798;SDS011;38667;42.872;74.622;2023-05-16T01:46:23;28.45;;;15.00;;
52798;SDS011;38667;42.872;74.622;2023-05-16T01:48:52;39.08;;;17.73;;
52798;SDS011;38667;42.872;74.622;2023-05-16T01:51:23;36.70;;;20.17;;
52798;SDS011;38667;42.872;74.622;2023-05-16T01:53:53;47.88;;;22.90;;
52798;SDS011;38667;42.872;74.622;2023-05-16T01:56:25;39.25;;;22.20;;
52798;SDS011;38667;42.872;74.622;2023-05-16T01:58:53;42.53;;;20.73;;
52798;SDS011;38667;42.872;74.622;2023-05-16T02:01:21;41.78;;;19.70;;
52798;SDS011;38667;42.872;74.622;2023-05-16T02:03:48;33.63;;;17.95;;
52798;SDS011;38667;42.872;74.622;2023-05-16T02:06:14;35.05;;;18.13;;
52798;SDS011;38667;42.872;74.622;2023-05-16T02:08:40;39.60;;;18.35;;
52798;SDS011;38667;42.872;74.622;2023-05-16T02:11:06;31.23;;;17.13;;
52798;SDS011;38667;42.872;74.622;2023-05-16T02:13:34;31.90;;;15.63;;
52798;SDS011;38667;42.872;74.622;2023-05-16T02:16:01;31.92;;;16.85;;
52798;SDS011;38667;42.872;74.622;2023-05-16T02:18:27;40.55;;;22.02;;
52798;SDS011;38667;42.872;74.622;2023-05-16T02:20:53;38.92;;;21.60;;
52798;SDS011;38667;42.872;74.622;2023-05-16T02:23:19;42.78;;;19.75;;
52798;SDS011;38667;42.872;74.622;2023-05-16T02:25:46;30.08;;;17.05;;
52798;SDS011;38667;42.872;74.622;2023-05-16T02:28:12;38.72;;;17.38;;
52798;SDS011;38667;42.872;74.622;2023-05-16T02:30:40;36.47;;;16.55;;
52798;SDS011;38667;42.872;74.622;2023-05-16T02:33:06;27.65;;;13.93;;
52798;SDS011;38667;42.872;74.622;2023-05-16T02:35:32;27.27;;;13.60;;
52798;SDS011;38667;42.872;74.622;2023-05-16T02:37:59;23.10;;;13.18;;
52798;SDS011;38667;42.872;74.622;2023-05-16T02:40:25;23.08;;;11.88;;
52798;SDS011;38667;42.872;74.622;2023-05-16T02:42:51;25.00;;;11.45;;
52798;SDS011;38667;42.872;74.622;2023-05-16T02:45:18;21.48;;;11.95;;
52798;SDS011;38667;42.872;74.622;2023-05-16T02:47:45;25.25;;;13.23;;
52798;SDS011;38667;42.872;74.622;2023-05-16T02:50:12;30.48;;;14.70;;
52798;SDS011;38667;42.872;74.622;2023-05-16T02:52:38;33.63;;;14.52;;
52798;SDS011;38667;42.872;74.622;2023-05-16T02:55:05;25.83;;;13.82;;
52798;SDS011;38667;42.872;74.622;2023-05-16T02:57:31;24.75;;;12.60;;
52798;SDS011;38667;42.872;74.622;2023-05-16T02:59:58;30.30;;;13.25;;
52798;SDS011;38667;42.872;74.622;2023-05-16T03:02:24;29.67;;;13.27;;
52798;SDS011;38667;42.872;74.622;2023-05-16T03:04:52;31.50;;;14.05;;
52798;SDS011;38667;42.872;74.622;2023-05-16T03:07:18;29.40;;;12.93;;
52798;SDS011;38667;42.872;74.622;2023-05-16T03:09:44;34.60;;;12.40;;
52798;SDS011;38667;42.872;74.622;2023-05-16T03:12:11;29.73;;;12.00;;
52798;SDS011;38667;42.872;74.622;2023-05-16T03:14:37;34.35;;;12.27;;
52798;SDS011;38667;42.872;74.622;2023-05-16T03:17:03;29.00;;;12.85;;
52798;SDS011;38667;42.872;74.622;2023-05-16T03:19:29;30.50;;;12.00;;
52798;SDS011;38667;42.872;74.622;2023-05-16T03:21:57;25.67;;;10.63;;
52798;SDS011;38667;42.872;74.622;2023-05-16T03:24:23;25.85;;;10.48;;
52798;SDS011;38667;42.872;74.622;2023-05-16T03:26:50;22.83;;;10.32;;
52798;SDS011;38667;42.872;74.622;2023-05-16T03:29:16;27.35;;;10.30;;
52798;SDS011;38667;42.872;74.622;2023-05-16T03:31:43;22.65;;;11.52;;
52798;SDS011;38667;42.872;74.622;2023-05-16T03:34:09;32.80;;;10.82;;
52798;SDS011;38667;42.872;74.622;2023-05-16T03:36:35;21.10;;;10.20;;
52798;SDS011;38667;42.872;74.622;2023-05-16T03:39:04;21.00;;;8.90;;
52798;SDS011;38667;42.872;74.622;2023-05-16T03:41:31;19.65;;;9.35;;
52798;SDS011;38667;42.872;74.622;2023-05-16T03:43:57;20.92;;;8.80;;
52798;SDS011;38667;42.872;74.622;2023-05-16T03:46:23;23.48;;;10.77;;
52798;SDS011;38667;42.872;74.622;2023-05-16T03:48:50;23.85;;;10.23;;
52798;SDS011;38667;42.872;74.622;2023-05-16T03:51:16;19.10;;;11.07;;
52798;SDS011;38667;42.872;74.622;2023-05-16T03:53:42;29.13;;;10.85;;
52798;SDS011;38667;42.872;74.622;2023-05-16T03:56:10;27.48;;;11.88;;
52798;SDS011;38667;42.872;74.622;2023-05-16T03:58:36;36.30;;;13.00;;
52798;SDS011;38667;42.872;74.622;2023-05-16T04:01:03;27.98;;;10.75;;
52798;SDS011;38667;42.872;74.622;2023-05-16T04:03:29;30.00;;;11.13;;
52798;SDS011;38667;42.872;74.622;2023-05-16T04:05:55;29.27;;;12.30;;
52798;SDS011;38667;42.872;74.622;2023-05-16T04:08:22;31.67;;;13.23;;
52798;SDS011;38667;42.872;74.622;2023-05-16T04:10:48;27.42;;;12.55;;
52798;SDS011;38667;42.872;74.622;2023-05-16T04:13:16;26.67;;;12.95;;
52798;SDS011;38667;42.872;74.622;2023-05-16T04:15:42;26.55;;;12.32;;
52798;SDS011;38667;42.872;74.622;2023-05-16T04:18:09;37.33;;;12.35;;
52798;SDS011;38667;42.872;74.622;2023-05-16T04:20:35;34.17;;;12.68;;
52798;SDS011;38667;42.872;74.622;2023-05-16T04:23:01;36.70;;;10.07;;
52798;SDS011;38667;42.872;74.622;2023-05-16T04:25:28;22.80;;;9.52;;
52798;SDS011;38667;42.872;74.622;2023-05-16T04:27:54;30.40;;;9.20;;
52798;SDS011;38667;42.872;74.622;2023-05-16T04:30:22;36.88;;;8.88;;
52798;SDS011;38667;42.872;74.622;2023-05-16T04:32:48;22.85;;;7.40;;
52798;SDS011;38667;42.872;74.622;2023-05-16T04:35:14;23.27;;;6.53;;
52798;SDS011;38667;42.872;74.622;2023-05-16T04:37:41;18.88;;;6.72;;
52798;SDS011;38667;42.872;74.622;2023-05-16T04:40:07;20.73;;;6.30;;
52798;SDS011;38667;42.872;74.622;2023-05-16T04:42:34;24.08;;;6.45;;
52798;SDS011;38667;42.872;74.622;2023-05-16T04:45:00;24.73;;;6.88;;
52798;SDS011;38667;42.872;74.622;2023-05-16T04:47:28;19.10;;;5.88;;
52798;SDS011;38667;42.872;74.622;2023-05-16T04:49:55;16.85;;;5.47;;
52798;SDS011;38667;42.872;74.622;2023-05-16T04:52:21;15.90;;;4.78;;
52798;SDS011;38667;42.872;74.622;2023-05-16T04:54:49;18.60;;;5.22;;
52798;SDS011;38667;42.872;74.622;2023-05-16T04:57:15;23.50;;;5.70;;
52798;SDS011;38667;42.872;74.622;2023-05-16T04:59:42;20.77;;;5.40;;
52798;SDS011;38667;42.872;74.622;2023-05-16T05:02:08;22.15;;;5.40;;
52798;SDS011;38667;42.872;74.622;2023-05-16T05:04:36;23.40;;;5.03;;
52798;SDS011;38667;42.872;74.622;2023-05-16T05:07:02;16.77;;;5.32;;
52798;SDS011;38667;42.872;74.622;2023-05-16T05:09:29;19.80;;;6.03;;
52798;SDS011;38667;42.872;74.622;2023-05-16T05:11:55;24.50;;;6.97;;
52798;SDS011;38667;42.872;74.622;2023-05-16T05:14:21;25.42;;;6.68;;
52798;SDS011;38667;42.872;74.622;2023-05-16T05:16:47;19.55;;;6.80;;
52798;SDS011;38667;42.872;74.622;2023-05-16T05:19:14;17.65;;;6.25;;
52798;SDS011;38667;42.872;74.622;2023-05-16T05:21:42;18.05;;;5.35;;
52798;SDS011;38667;42.872;74.622;2023-05-16T05:24:08;22.17;;;6.25;;
52798;SDS011;38667;42.872;74.622;2023-05-16T05:26:35;24.42;;;6.45;;
52798;SDS011;38667;42.872;74.622;2023-05-16T05:29:01;17.27;;;5.22;;
52798;SDS011;38667;42.872;74.622;2023-05-16T05:31:28;17.48;;;5.35;;
52798;SDS011;38667;42.872;74.622;2023-05-16T05:33:54;15.07;;;5.22;;
52798;SDS011;38667;42.872;74.622;2023-05-16T05:36:20;20.13;;;5.10;;
52798;SDS011;38667;42.872;74.622;2023-05-16T05:38:48;19.77;;;5.03;;
52798;SDS011;38667;42.872;74.622;2023-05-16T05:41:14;15.75;;;4.68;;
52798;SDS011;38667;42.872;74.622;2023-05-16T05:43:41;17.75;;;5.93;;
52798;SDS011;38667;42.872;74.622;2023-05-16T05:46:07;18.45;;;5.05;;
52798;SDS011;38667;42.872;74.622;2023-05-16T05:48:33;15.88;;;4.97;;
52798;SDS011;38667;42.872;74.622;2023-05-16T05:51:00;14.55;;;4.43;;
52798;SDS011;38667;42.872;74.622;2023-05-16T05:53:26;15.95;;;4.97;;
52798;SDS011;38667;42.872;74.622;2023-05-16T05:55:54;14.43;;;4.80;;
52798;SDS011;38667;42.872;74.622;2023-05-16T05:58:20;21.52;;;5.47;;
52798;SDS011;38667;42.872;74.622;2023-05-16T06:00:46;14.40;;;4.80;;
52798;SDS011;38667;42.872;74.622;2023-05-16T06:03:13;12.73;;;4.15;;
52798;SDS011;38667;42.872;74.622;2023-05-16T06:05:39;17.05;;;4.32;;
52798;SDS011;38667;42.872;74.622;2023-05-16T06:08:05;12.95;;;5.05;;
52798;SDS011;38667;42.872;74.622;2023-05-16T06:10:32;11.63;;;4.47;;
52798;SDS011;38667;42.872;74.622;2023-05-16T06:12:59;11.90;;;4.45;;
52798;SDS011;38667;42.872;74.622;2023-05-16T06:15:26;13.23;;;5.28;;
52798;SDS011;38667;42.872;74.622;2023-05-16T06:17:52;11.95;;;4.03;;
52798;SDS011;38667;42.872;74.622;2023-05-16T06:20:18;9.43;;;4.10;;
52798;SDS011;38667;42.872;74.622;2023-05-16T06:22:45;12.68;;;4.40;;
52798;SDS011;38667;42.872;74.622;2023-05-16T06:25:11;11.93;;;4.28;;
52798;SDS011;38667;42.872;74.622;2023-05-16T06:27:37;10.10;;;3.72;;
52798;SDS011;38667;42.872;74.622;2023-05-16T06:30:06;11.63;;;3.60;;
52798;SDS011;38667;42.872;74.622;2023-05-16T06:32:33;12.20;;;4.50;;
52798;SDS011;38667;42.872;74.622;2023-05-16T06:34:59;15.10;;;4.65;;
52798;SDS011;38667;42.872;74.622;2023-05-16T06:37:25;10.57;;;3.78;;
52798;SDS011;38667;42.872;74.622;2023-05-16T06:39:51;10.27;;;4.47;;
52798;SDS011;38667;42.872;74.622;2023-05-16T06:42:18;18.30;;;4.32;;
52798;SDS011;38667;42.872;74.622;2023-05-16T06:44:44;18.52;;;4.70;;
52798;SDS011;38667;42.872;74.622;2023-05-16T06:47:12;8.15;;;3.85;;
52798;SDS011;38667;42.872;74.622;2023-05-16T06:49:38;15.35;;;3.95;;
52798;SDS011;38667;42.872;74.622;2023-05-16T06:52:05;8.93;;;4.35;;
52798;SDS011;38667;42.872;74.622;2023-05-16T06:54:31;16.50;;;3.88;;
52798;SDS011;38667;42.872;74.622;2023-05-16T06:56:57;14.38;;;4.05;;
52798;SDS011;38667;42.872;74.622;2023-05-16T06:59:24;18.27;;;4.20;;
52798;SDS011;38667;42.872;74.622;2023-05-16T07:01:50;12.90;;;4.28;;
52798;SDS011;38667;42.872;74.622;2023-05-16T07:04:18;15.05;;;4.18;;
52798;SDS011;38667;42.872;74.622;2023-05-16T07:06:44;14.63;;;4.00;;
52798;SDS011;38667;42.872;74.622;2023-05-16T07:09:10;15.00;;;4.40;;
52798;SDS011;38667;42.872;74.622;2023-05-16T07:11:37;14.05;;;4.13;;
52798;SDS011;38667;42.872;74.622;2023-05-16T07:14:03;15.20;;;4.28;;
52798;SDS011;38667;42.872;74.622;2023-05-16T07:16:29;11.90;;;4.13;;
52798;SDS011;38667;42.872;74.622;2023-05-16T07:18:56;17.95;;;4.15;;
52798;SDS011;38667;42.872;74.622;2023-05-16T07:21:23;11.80;;;4.20;;
52798;SDS011;38667;42.872;74.622;2023-05-16T07:23:50;15.93;;;3.80;;
52798;SDS011;38667;42.872;74.622;2023-05-16T07:26:16;10.88;;;3.90;;
52798;SDS011;38667;42.872;74.622;2023-05-16T07:28:42;11.23;;;3.65;;
52798;SDS011;38667;42.872;74.622;2023-05-16T07:31:09;15.52;;;3.70;;
52798;SDS011;38667;42.872;74.622;2023-05-16T07:33:35;12.70;;;4.55;;
52798;SDS011;38667;42.872;74.622;2023-05-16T07:36:01;12.55;;;3.40;;
52798;SDS011;38667;42.872;74.622;2023-05-16T07:38:29;8.75;;;3.40;;
52798;SDS011;38667;42.872;74.622;2023-05-16T07:40:56;9.10;;;3.90;;
52798;SDS011;38667;42.872;74.622;2023-05-16T07:43:22;12.55;;;3.72;;
52798;SDS011;38667;42.872;74.622;2023-05-16T07:45:48;12.95;;;3.72;;
52798;SDS011;38667;42.872;74.622;2023-05-16T07:48:15;7.93;;;3.42;;
52798;SDS011;38667;42.872;74.622;2023-05-16T07:50:41;13.55;;;3.88;;
52798;SDS011;38667;42.872;74.622;2023-05-16T07:53:08;8.90;;;4.28;;
52798;SDS011;38667;42.872;74.622;2023-05-16T07:55:35;14.38;;;4.15;;
52798;SDS011;38667;42.872;74.622;2023-05-16T07:58:02;16.60;;;3.92;;
52798;SDS011;38667;42.872;74.622;2023-05-16T08:00:28;11.63;;;3.83;;
52798;SDS011;38667;42.872;74.622;2023-05-16T08:02:56;17.13;;;4.00;;
52798;SDS011;38667;42.872;74.622;2023-05-16T08:05:22;11.82;;;3.78;;
52798;SDS011;38667;42.872;74.622;2023-05-16T08:07:48;11.38;;;3.50;;
52798;SDS011;38667;42.872;74.622;2023-05-16T08:10:15;9.80;;;3.38;;
52798;SDS011;38667;42.872;74.622;2023-05-16T08:12:42;17.35;;;4.10;;
52798;SDS011;38667;42.872;74.622;2023-05-16T08:15:09;8.88;;;3.60;;
52798;SDS011;38667;42.872;74.622;2023-05-16T08:17:35;9.38;;;3.45;;
52798;SDS011;38667;42.872;74.622;2023-05-16T08:20:02;14.55;;;4.13;;
52798;SDS011;38667;42.872;74.622;2023-05-16T08:22:29;14.02;;;4.35;;
52798;SDS011;38667;42.872;74.622;2023-05-16T08:24:56;11.18;;;3.63;;
52798;SDS011;38667;42.872;74.622;2023-05-16T08:27:22;13.43;;;3.88;;
52798;SDS011;38667;42.872;74.622;2023-05-16T08:29:50;12.23;;;3.70;;
52798;SDS011;38667;42.872;74.622;2023-05-16T08:32:16;14.15;;;4.20;;
52798;SDS011;38667;42.872;74.622;2023-05-16T08:34:42;10.48;;;3.58;;
52798;SDS011;38667;42.872;74.622;2023-05-16T08:37:09;17.30;;;4.65;;
52798;SDS011;38667;42.872;74.622;2023-05-16T08:39:35;13.35;;;3.83;;
52798;SDS011;38667;42.872;74.622;2023-05-16T08:42:03;13.00;;;4.15;;
52798;SDS011;38667;42.872;74.622;2023-05-16T08:44:30;12.90;;;4.18;;
52798;SDS011;38667;42.872;74.622;2023-05-16T08:46:58;8.93;;;3.70;;
52798;SDS011;38667;42.872;74.622;2023-05-16T08:49:35;11.50;;;4.20;;
52798;SDS011;38667;42.872;74.622;2023-05-16T08:52:03;12.15;;;4.10;;
52798;SDS011;38667;42.872;74.622;2023-05-16T08:54:33;15.07;;;4.45;;
52798;SDS011;38667;42.872;74.622;2023-05-16T08:57:00;15.57;;;4.60;;
52798;SDS011;38667;42.872;74.622;2023-05-16T08:59:27;13.70;;;4.05;;
52798;SDS011;38667;42.872;74.622;2023-05-16T09:01:54;10.68;;;4.18;;
52798;SDS011;38667;42.872;74.622;2023-05-16T09:04:22;12.30;;;3.88;;
52798;SDS011;38667;42.872;74.622;2023-05-16T09:06:50;10.40;;;3.85;;
52798;SDS011;38667;42.872;74.622;2023-05-16T09:09:17;16.48;;;4.28;;
52798;SDS011;38667;42.872;74.622;2023-05-16T09:11:43;9.85;;;3.70;;
52798;SDS011;38667;42.872;74.622;2023-05-16T09:14:10;13.68;;;4.25;;
52798;SDS011;38667;42.872;74.622;2023-05-16T09:16:36;15.80;;;4.22;;
52798;SDS011;38667;42.872;74.622;2023-05-16T09:19:03;13.57;;;4.05;;
52798;SDS011;38667;42.872;74.622;2023-05-16T09:21:33;20.33;;;4.28;;
52798;SDS011;38667;42.872;74.622;2023-05-16T09:24:01;16.52;;;4.03;;
52798;SDS011;38667;42.872;74.622;2023-05-16T09:26:28;14.55;;;5.45;;
52798;SDS011;38667;42.872;74.622;2023-05-16T09:28:54;8.98;;;4.20;;
52798;SDS011;38667;42.872;74.622;2023-05-16T09:31:21;20.38;;;4.60;;
52798;SDS011;38667;42.872;74.622;2023-05-16T09:33:48;13.25;;;4.15;;
52798;SDS011;38667;42.872;74.622;2023-05-16T09:36:14;12.38;;;3.88;;
52798;SDS011;38667;42.872;74.622;2023-05-16T09:38:43;8.77;;;4.15;;
52798;SDS011;38667;42.872;74.622;2023-05-16T09:41:09;12.55;;;4.22;;
52798;SDS011;38667;42.872;74.622;2023-05-16T09:43:37;17.25;;;4.18;;
52798;SDS011;38667;42.872;74.622;2023-05-16T09:46:04;12.63;;;3.70;;
52798;SDS011;38667;42.872;74.622;2023-05-16T09:48:31;11.63;;;3.92;;
52798;SDS011;38667;42.872;74.622;2023-05-16T09:50:57;7.60;;;3.60;;
52798;SDS011;38667;42.872;74.622;2023-05-16T09:53:24;15.27;;;4.57;;
52798;SDS011;38667;42.872;74.622;2023-05-16T09:55:59;15.98;;;3.92;;
52798;SDS011;38667;42.872;74.622;2023-05-16T09:58:27;15.73;;;4.07;;
52798;SDS011;38667;42.872;74.622;2023-05-16T10:00:54;11.85;;;4.05;;
52798;SDS011;38667;42.872;74.622;2023-05-16T10:03:21;12.32;;;4.15;;
52798;SDS011;38667;42.872;74.622;2023-05-16T10:05:48;12.88;;;3.67;;
52798;SDS011;38667;42.872;74.622;2023-05-16T10:08:15;12.32;;;4.05;;
52798;SDS011;38667;42.872;74.622;2023-05-16T10:10:42;13.98;;;5.65;;
52798;SDS011;38667;42.872;74.622;2023-05-16T10:13:10;15.57;;;5.32;;
52798;SDS011;38667;42.872;74.622;2023-05-16T10:15:37;16.67;;;5.57;;
52798;SDS011;38667;42.872;74.622;2023-05-16T10:18:03;19.52;;;4.82;;
52798;SDS011;38667;42.872;74.622;2023-05-16T10:20:32;20.23;;;4.75;;
52798;SDS011;38667;42.872;74.622;2023-05-16T10:22:58;15.73;;;5.57;;
52798;SDS011;38667;42.872;74.622;2023-05-16T10:25:28;12.00;;;5.07;;
52798;SDS011;38667;42.872;74.622;2023-05-16T10:27:58;16.42;;;5.70;;
52798;SDS011;38667;42.872;74.622;2023-05-16T10:30:26;22.20;;;6.47;;
52798;SDS011;38667;42.872;74.622;2023-05-16T10:32:52;14.80;;;5.90;;
52798;SDS011;38667;42.872;74.622;2023-05-16T10:35:20;11.63;;;4.57;;
52798;SDS011;38667;42.872;74.622;2023-05-16T10:37:47;11.43;;;5.10;;
52798;SDS011;38667;42.872;74.622;2023-05-16T10:40:15;14.90;;;5.10;;
52798;SDS011;38667;42.872;74.622;2023-05-16T10:42:43;14.45;;;4.88;;
52798;SDS011;38667;42.872;74.622;2023-05-16T10:45:18;11.98;;;4.10;;
52798;SDS011;38667;42.872;74.622;2023-05-16T10:47:51;12.40;;;3.97;;
52798;SDS011;38667;42.872;74.622;2023-05-16T10:50:34;13.77;;;4.20;;
52798;SDS011;38667;42.872;74.622;2023-05-16T10:53:12;8.38;;;4.45;;
52798;SDS011;38667;42.872;74.622;2023-05-16T10:55:49;12.73;;;4.40;;
52798;SDS011;38667;42.872;74.622;2023-05-16T10:58:39;14.25;;;3.97;;
52798;SDS011;38667;42.872;74.622;2023-05-16T11:01:15;15.77;;;4.43;;
52798;SDS011;38667;42.872;74.622;2023-05-16T11:06:42;12.48;;;3.95;;
52798;SDS011;38667;42.872;74.622;2023-05-16T11:09:22;13.07;;;4.05;;
52798;SDS011;38667;42.872;74.622;2023-05-16T11:11:53;14.05;;;4.15;;
52798;SDS011;38667;42.872;74.622;2023-05-16T11:14:21;20.67;;;4.47;;
52798;SDS011;38667;42.872;74.622;2023-05-16T11:16:49;25.60;;;4.65;;
52798;SDS011;38667;42.872;74.622;2023-05-16T11:19:29;13.07;;;3.97;;
52798;SDS011;38667;42.872;74.622;2023-05-16T11:22:20;16.05;;;4.03;;
52798;SDS011;38667;42.872;74.622;2023-05-16T11:24:49;8.10;;;3.85;;
52798;SDS011;38667;42.872;74.622;2023-05-16T11:27:20;17.27;;;4.05;;
52798;SDS011;38667;42.872;74.622;2023-05-16T11:29:48;7.78;;;4.03;;
52798;SDS011;38667;42.872;74.622;2023-05-16T11:32:17;13.77;;;4.30;;
52798;SDS011;38667;42.872;74.622;2023-05-16T11:34:46;19.80;;;4.90;;
52798;SDS011;38667;42.872;74.622;2023-05-16T11:37:13;36.42;;;6.60;;
52798;SDS011;38667;42.872;74.622;2023-05-16T11:39:39;15.77;;;4.70;;
52798;SDS011;38667;42.872;74.622;2023-05-16T11:42:05;22.15;;;4.55;;
52798;SDS011;38667;42.872;74.622;2023-05-16T11:44:32;21.25;;;5.13;;
52798;SDS011;38667;42.872;74.622;2023-05-16T11:46:59;19.77;;;5.28;;
52798;SDS011;38667;42.872;74.622;2023-05-16T11:49:26;18.20;;;4.93;;
52798;SDS011;38667;42.872;74.622;2023-05-16T11:51:54;26.67;;;5.93;;
52798;SDS011;38667;42.872;74.622;2023-05-16T11:54:20;18.77;;;5.35;;
52798;SDS011;38667;42.872;74.622;2023-05-16T11:56:47;12.77;;;4.25;;
52798;SDS011;38667;42.872;74.622;2023-05-16T11:59:13;15.88;;;4.60;;
52798;SDS011;38667;42.872;74.622;2023-05-16T12:01:41;17.90;;;4.93;;
52798;SDS011;38667;42.872;74.622;2023-05-16T12:04:07;13.25;;;4.40;;
52798;SDS011;38667;42.872;74.622;2023-05-16T12:06:34;24.38;;;4.82;;
52798;SDS011;38667;42.872;74.622;2023-05-16T12:09:02;17.90;;;4.13;;
52798;SDS011;38667;42.872;74.622;2023-05-16T12:11:29;13.25;;;3.67;;
52798;SDS011;38667;42.872;74.622;2023-05-16T12:13:55;12.48;;;3.05;;
52798;SDS011;38667;42.872;74.622;2023-05-16T12:16:21;8.95;;;2.75;;
52798;SDS011;38667;42.872;74.622;2023-05-16T12:18:48;5.97;;;2.15;;
52798;SDS011;38667;42.872;74.622;2023-05-16T12:21:14;9.32;;;2.55;;
52798;SDS011;38667;42.872;74.622;2023-05-16T12:23:41;9.27;;;2.50;;
52798;SDS011;38667;42.872;74.622;2023-05-16T12:26:08;7.75;;;2.70;;
52798;SDS011;38667;42.872;74.622;2023-05-16T12:28:35;7.43;;;3.22;;
52798;SDS011;38667;42.872;74.622;2023-05-16T12:31:01;11.85;;;4.03;;
52798;SDS011;38667;42.872;74.622;2023-05-16T12:33:27;14.52;;;4.70;;
52798;SDS011;38667;42.872;74.622;2023-05-16T12:35:54;17.58;;;5.75;;
52798;SDS011;38667;42.872;74.622;2023-05-16T12:38:20;28.00;;;6.05;;
52798;SDS011;38667;42.872;74.622;2023-05-16T12:40:46;22.13;;;6.30;;
52798;SDS011;38667;42.872;74.622;2023-05-16T12:43:14;16.80;;;6.18;;
52798;SDS011;38667;42.872;74.622;2023-05-16T12:45:41;22.13;;;7.38;;
52798;SDS011;38667;42.872;74.622;2023-05-16T12:48:13;14.80;;;6.15;;
52798;SDS011;38667;42.872;74.622;2023-05-16T12:50:40;12.65;;;4.70;;
52798;SDS011;38667;42.872;74.622;2023-05-16T12:53:09;16.20;;;5.32;;
52798;SDS011;38667;42.872;74.622;2023-05-16T12:55:37;16.83;;;5.00;;
52798;SDS011;38667;42.872;74.622;2023-05-16T12:58:03;15.43;;;4.75;;
52798;SDS011;38667;42.872;74.622;2023-05-16T13:00:31;19.08;;;4.68;;
52798;SDS011;38667;42.872;74.622;2023-05-16T13:02:57;12.93;;;4.32;;
52798;SDS011;38667;42.872;74.622;2023-05-16T13:05:24;13.60;;;4.78;;
52798;SDS011;38667;42.872;74.622;2023-05-16T13:07:50;14.45;;;4.78;;
52798;SDS011;38667;42.872;74.622;2023-05-16T13:10:17;12.80;;;5.20;;
52798;SDS011;38667;42.872;74.622;2023-05-16T13:12:43;11.90;;;5.00;;
52798;SDS011;38667;42.872;74.622;2023-05-16T13:15:10;13.65;;;4.10;;
52798;SDS011;38667;42.872;74.622;2023-05-16T13:17:38;13.13;;;4.93;;
52798;SDS011;38667;42.872;74.622;2023-05-16T13:20:06;17.35;;;5.88;;
52798;SDS011;38667;42.872;74.622;2023-05-16T13:22:33;16.17;;;4.80;;
52798;SDS011;38667;42.872;74.622;2023-05-16T13:24:59;12.38;;;4.43;;
52798;SDS011;38667;42.872;74.622;2023-05-16T13:27:26;21.20;;;7.15;;
52798;SDS011;38667;42.872;74.622;2023-05-16T13:29:52;17.67;;;5.57;;
52798;SDS011;38667;42.872;74.622;2023-05-16T13:32:18;15.52;;;6.18;;
52798;SDS011;38667;42.872;74.622;2023-05-16T13:34:46;19.63;;;6.22;;
52798;SDS011;38667;42.872;74.622;2023-05-16T13:37:12;18.15;;;6.13;;
52798;SDS011;38667;42.872;74.622;2023-05-16T13:39:39;17.48;;;7.97;;
52798;SDS011;38667;42.872;74.622;2023-05-16T13:42:05;15.65;;;6.22;;
52798;SDS011;38667;42.872;74.622;2023-05-16T13:44:31;18.58;;;6.32;;
52798;SDS011;38667;42.872;74.622;2023-05-16T13:46:58;12.23;;;5.45;;
52798;SDS011;38667;42.872;74.622;2023-05-16T13:49:24;10.15;;;4.55;;
52798;SDS011;38667;42.872;74.622;2023-05-16T13:51:52;15.52;;;5.22;;
52798;SDS011;38667;42.872;74.622;2023-05-16T13:54:18;14.77;;;5.30;;
52798;SDS011;38667;42.872;74.622;2023-05-16T13:56:45;12.32;;;4.93;;
52798;SDS011;38667;42.872;74.622;2023-05-16T13:59:11;13.00;;;5.20;;
52798;SDS011;38667;42.872;74.622;2023-05-16T14:01:38;12.80;;;4.93;;
52798;SDS011;38667;42.872;74.622;2023-05-16T14:04:04;20.25;;;5.50;;
52798;SDS011;38667;42.872;74.622;2023-05-16T14:06:30;17.83;;;5.50;;
52798;SDS011;38667;42.872;74.622;2023-05-16T14:08:58;13.63;;;5.07;;
52798;SDS011;38667;42.872;74.622;2023-05-16T14:11:24;17.58;;;6.00;;
52798;SDS011;38667;42.872;74.622;2023-05-16T14:13:51;16.98;;;6.78;;
52798;SDS011;38667;42.872;74.622;2023-05-16T14:16:17;18.70;;;5.80;;
52798;SDS011;38667;42.872;74.622;2023-05-16T14:18:44;12.85;;;6.63;;
52798;SDS011;38667;42.872;74.622;2023-05-16T14:21:10;22.75;;;11.40;;
52798;SDS011;38667;42.872;74.622;2023-05-16T14:23:36;22.60;;;10.88;;
52798;SDS011;38667;42.872;74.622;2023-05-16T14:26:04;18.52;;;6.50;;